This is the latest recevied weather packets stored in our database for station/object DG9MHV-10. If no packets are shown the sender has not sent any weather packets the latest 10 day(s).
| Time | Temp. | Humidity | Pressure | Rain* | Wind** | Luminosity | Snow |
|---|---|---|---|---|---|---|---|
| 1778084763 | 12.22° C | 100% | 1004.8 hPa | - | - | - | - |
| 1778082972 | 17.22° C | 100% | 1006.6 hPa | - | - | - | - |
| 1778082072 | 17.78° C | 100% | 1005.9 hPa | - | - | - | - |
| 1778081171 | 18.33° C | 100% | 1005.5 hPa | - | - | - | - |
| 1778080271 | 20° C | 100% | 1005 hPa | - | - | - | - |
| 1778079371 | 20° C | 100% | 1005 hPa | - | - | - | - |
| 1778078471 | 20° C | 100% | 1005.7 hPa | - | - | - | - |
| 1778077571 | 18.89° C | 100% | 1005.6 hPa | - | - | - | - |
| 1778076671 | 17.22° C | 100% | 1005.4 hPa | - | - | - | - |
| 1778075771 | 17.78° C | 100% | 1005.8 hPa | - | - | - | - |
| 1778074871 | 18.33° C | 100% | 1005.9 hPa | - | - | - | - |
| 1778073971 | 18.33° C | 100% | 1005.7 hPa | - | - | - | - |
| 1778073070 | 18.89° C | 100% | 1005.8 hPa | - | - | - | - |
| 1778072170 | 21.11° C | 100% | 1005.9 hPa | - | - | - | - |
| 1778071270 | 22.22° C | 100% | 1005.9 hPa | - | - | - | - |
| 1778070369 | 22.22° C | 100% | 1006 hPa | - | - | - | - |
| 1778069469 | 21.11° C | 100% | 1006.1 hPa | - | - | - | - |
| 1778068569 | 21.67° C | 100% | 1006.2 hPa | - | - | - | - |
| 1778067669 | 22.78° C | 100% | 1006.2 hPa | - | - | - | - |
| 1778066769 | 21.67° C | 100% | 1006.1 hPa | - | - | - | - |
| 1778065869 | 22.22° C | 100% | 1006.1 hPa | - | - | - | - |
| 1778064969 | 22.22° C | 100% | 1006.6 hPa | - | - | - | - |
| 1778064069 | 22.78° C | 100% | 1006.8 hPa | - | - | - | - |
| 1778063169 | 21.67° C | 100% | 1007 hPa | - | - | - | - |
| 1778062268 | 20.56° C | 100% | 1007.1 hPa | - | - | - | - |
* Rain since midnight (hover to see other rain measurements)
** Current wind speed in m/s (hover to see current wind gust speed)